Time;durP1;ratioP1;P1;durP2;ratioP2;P2;SDS_P1;SDS_P2;PMS_P1;PMS_P2;Temp;Humidity;BMP_temperature;BMP_pressure;BME280_temperature;BME280_humidity;BME280_pressure;Samples;Min_cycle;Max_cycle;Signal;HPM_P1;HPM_P2
2023/05/21 05:00:56;;;;;;;15.93;11.40;;;;;;;;;;5140873;27;20307;-81
2023/05/21 05:08:39;;;;;;;14.73;11.57;;;10.80;99.90;;;;;;5135162;27;20599;-81
2023/05/21 05:15:21;;;;;;;17.30;12.77;;;;;;;;;;5135189;27;20268;-79
2023/05/21 05:20:15;;;;;;;15.30;11.43;;;11.30;99.90;;;;;;5116251;27;20964;-80
2023/05/21 05:24:44;;;;;;;15.17;11.90;;;11.20;99.90;;;;;;5136430;27;20271;-82
2023/05/21 05:29:21;;;;;;;15.03;10.07;;;11.30;99.90;;;;;;5135381;27;20744;-81
2023/05/21 05:33:04;;;;;;;12.70;9.60;;;11.40;99.90;;;;;;5135302;27;20263;-82
2023/05/21 05:36:56;;;;;;;11.63;9.47;;;11.30;99.90;;;;;;5135267;27;20263;-82
2023/05/21 05:40:52;;;;;;;13.57;9.90;;;11.50;99.90;;;;;;5134938;27;20278;-80
2023/05/21 05:44:50;;;;;;;11.30;9.17;;;11.60;99.90;;;;;;5135748;27;20267;-81
2023/05/21 05:48:49;;;;;;;12.83;8.67;;;11.80;99.90;;;;;;5134710;27;20271;-80
2023/05/21 05:53:50;;;;;;;12.03;9.03;;;12.20;99.90;;;;;;5135554;27;20273;-80
2023/05/21 05:56:16;;;;;;;10.33;8.93;;;12.30;99.90;;;;;;5135318;28;20680;-81
2023/05/21 06:00:46;;;;;;;9.73;7.83;;;12.50;99.90;;;;;;5134829;27;20283;-80
2023/05/21 06:03:12;;;;;;;13.00;9.27;;;12.60;99.90;;;;;;5134476;27;20253;-81
2023/05/21 06:07:47;;;;;;;10.00;8.70;;;12.80;99.90;;;;;;5134984;27;20278;-83
2023/05/21 06:10:13;;;;;;;12.13;8.17;;;12.90;99.90;;;;;;5134808;28;20258;-80
2023/05/21 06:13:51;;;;;;;10.77;8.47;;;13.10;99.90;;;;;;5074459;28;20544;-81
2023/05/21 06:17:53;;;;;;;9.13;7.77;;;13.20;99.90;;;;;;5114659;27;20552;-81
2023/05/21 06:21:54;;;;;;;13.13;8.03;;;13.40;99.90;;;;;;5085714;28;20547;-80
2023/05/21 06:25:55;;;;;;;9.83;8.70;;;13.50;99.90;;;;;;5127172;27;20516;-80
2023/05/21 06:29:56;;;;;;;10.97;7.93;;;13.60;99.90;;;;;;5070382;28;20286;-79
2023/05/21 06:33:54;;;;;;;9.20;8.10;;;13.80;99.90;;;;;;5133742;27;20278;-80
2023/05/21 06:37:54;;;;;;;9.63;8.30;;;13.90;99.90;;;;;;5136167;27;20274;-80
2023/05/21 06:41:53;;;;;;;12.30;8.23;;;14.00;99.90;;;;;;5134884;27;20286;-80
2023/05/21 06:46:49;;;;;;;12.77;8.13;;;14.20;99.90;;;;;;5136126;27;20278;-83
2023/05/21 06:49:15;;;;;;;9.63;7.63;;;14.30;99.90;;;;;;5135770;28;20238;-81
2023/05/21 06:51:40;;;;;;;9.10;7.80;;;14.40;99.90;;;;;;5128647;28;20195;-81
2023/05/21 06:54:06;;;;;;;9.13;7.97;;;14.50;99.90;;;;;;5136723;27;20170;-80
2023/05/21 06:56:31;;;;;;;9.00;7.93;;;14.50;99.90;;;;;;5136797;27;20171;-80
2023/05/21 06:58:58;;;;;;;9.60;8.33;;;14.50;99.90;;;;;;5133051;28;20580;-81
2023/05/21 07:01:23;;;;;;;10.80;8.10;;;14.60;99.90;;;;;;5133063;28;20205;-81
2023/05/21 07:03:49;;;;;;;8.03;7.13;;;14.60;99.90;;;;;;5133864;27;20171;-80
2023/05/21 07:06:15;;;;;;;8.57;7.40;;;14.80;99.90;;;;;;5133065;28;20211;-81
2023/05/21 07:08:41;;;;;;;9.53;8.00;;;14.90;99.90;;;;;;5134860;27;20239;-82
2023/05/21 07:11:07;;;;;;;9.87;8.27;;;15.00;99.90;;;;;;5134244;27;20187;-80
2023/05/21 07:13:34;;;;;;;10.30;7.67;;;15.30;99.90;;;;;;5132946;27;20163;-79
2023/05/21 07:16:00;;;;;;;9.83;7.80;;;15.40;99.90;;;;;;5132841;27;20175;-79
2023/05/21 07:18:26;;;;;;;7.80;7.00;;;15.50;99.90;;;;;;5132825;27;20220;-79
2023/05/21 07:20:51;;;;;;;7.63;6.73;;;15.70;99.90;;;;;;5134301;27;20195;-79
2023/05/21 07:23:17;;;;;;;10.00;7.17;;;15.80;99.90;;;;;;5131544;28;20668;-80
2023/05/21 07:25:43;;;;;;;7.67;6.87;;;16.00;99.90;;;;;;5132557;28;20202;-81
2023/05/21 07:28:08;;;;;;;7.73;6.80;;;16.20;99.90;;;;;;5133172;27;20174;-81
2023/05/21 07:30:34;;;;;;;9.90;6.10;;;16.30;99.90;;;;;;5131913;28;20235;-80
2023/05/21 07:33:00;;;;;;;6.83;5.80;;;16.50;99.90;;;;;;5132119;28;20174;-80
2023/05/21 07:35:25;;;;;;;9.97;7.23;;;16.70;99.90;;;;;;5132723;27;20174;-81
2023/05/21 07:37:51;;;;;;;8.40;6.50;;;16.80;99.90;;;;;;5133142;27;20176;-82
2023/05/21 07:40:17;;;;;;;8.07;6.80;;;16.80;99.90;;;;;;5133131;27;20189;-80
2023/05/21 07:42:42;;;;;;;8.70;6.77;;;16.90;99.90;;;;;;5133420;27;20524;-79
2023/05/21 07:45:08;;;;;;;7.77;6.73;;;17.10;99.90;;;;;;5133183;27;20212;-80
2023/05/21 07:47:34;;;;;;;7.30;6.43;;;17.40;99.90;;;;;;5133355;27;20246;-80
2023/05/21 07:49:59;;;;;;;6.50;5.77;;;17.50;99.90;;;;;;5132929;27;20203;-79
2023/05/21 07:52:25;;;;;;;7.30;6.00;;;17.60;99.90;;;;;;5132299;27;20168;-80
2023/05/21 07:54:51;;;;;;;6.10;5.50;;;17.90;99.90;;;;;;5132181;27;20177;-81
2023/05/21 07:57:16;;;;;;;8.10;5.90;;;18.00;99.90;;;;;;5123829;27;20221;-80
2023/05/21 07:59:42;;;;;;;8.07;5.60;;;18.10;99.90;;;;;;5117776;28;20173;-80
2023/05/21 08:02:08;;;;;;;8.37;6.20;;;18.30;99.90;;;;;;5118390;28;20584;-79
2023/05/21 08:04:33;;;;;;;7.03;5.67;;;18.40;99.90;;;;;;5118274;28;20527;-81
2023/05/21 08:06:59;;;;;;;8.67;5.20;;;18.60;99.90;;;;;;5118067;28;20630;-81
2023/05/21 08:09:25;;;;;;;5.47;4.80;;;18.80;99.90;;;;;;5118333;28;20178;-81
2023/05/21 08:11:50;;;;;;;5.93;4.77;;;19.00;99.90;;;;;;5118178;28;20186;-80
2023/05/21 08:14:16;;;;;;;5.63;4.83;;;19.20;99.90;;;;;;5118463;28;20167;-81
2023/05/21 08:16:43;;;;;;;8.00;5.30;;;19.40;99.90;;;;;;5118739;28;20531;-80
2023/05/21 08:19:09;;;;;;;6.00;4.80;;;19.60;99.90;;;;;;5117447;28;20179;-80
2023/05/21 08:21:35;;;;;;;6.83;4.97;;;19.80;99.90;;;;;;5117509;28;20716;-82
2023/05/21 08:24:01;;;;;;;6.47;4.77;;;19.80;99.90;;;;;;5117291;28;20699;-82
2023/05/21 08:26:27;;;;;;;6.77;5.03;;;19.90;99.90;;;;;;5118970;28;20207;-81
2023/05/21 08:28:53;;;;;;;6.17;5.57;;;19.80;99.90;;;;;;5120848;28;20216;-80
2023/05/21 08:31:19;;;;;;;9.13;6.20;;;19.70;99.90;;;;;;5117579;28;20195;-81
2023/05/21 08:33:52;;;;;;;6.70;6.03;;;19.70;99.90;;;;;;5116973;28;20172;-82
2023/05/21 08:36:17;;;;;;;6.73;4.50;;;19.70;99.90;;;;;;5118479;27;20537;-81
2023/05/21 08:38:43;;;;;;;8.33;5.87;;;19.80;99.90;;;;;;5118244;28;20242;-81
2023/05/21 08:41:12;;;;;;;9.47;6.03;;;19.80;99.90;;;;;;5116589;28;20202;-81
2023/05/21 08:43:38;;;;;;;6.83;6.07;;;19.70;99.90;;;;;;5118461;28;20163;-80
2023/05/21 08:46:05;;;;;;;10.73;5.90;;;19.60;99.90;;;;;;5117152;28;20211;-82
2023/05/21 08:48:31;;;;;;;7.57;5.47;;;19.50;99.90;;;;;;5119375;28;20225;-80
2023/05/21 08:50:58;;;;;;;6.93;5.93;;;19.70;99.90;;;;;;5118464;28;20189;-80
2023/05/21 08:53:26;;;;;;;8.13;6.80;;;20.00;99.90;;;;;;5117830;28;20196;-82
2023/05/21 08:55:54;;;;;;;9.37;5.50;;;20.40;99.90;;;;;;5117051;28;20212;-80
2023/05/21 08:58:20;;;;;;;7.13;5.90;;;20.90;99.90;;;;;;5117327;28;20202;-82
2023/05/21 09:00:46;;;;;;;8.33;5.77;;;21.10;99.90;;;;;;5118650;27;20195;-81
2023/05/21 09:03:13;;;;;;;7.67;5.77;;;21.40;99.90;;;;;;5117543;28;20175;-80
2023/05/21 09:05:43;;;;;;;6.53;5.70;;;21.80;99.90;;;;;;5117231;28;20207;-82
2023/05/21 09:08:13;;;;;;;5.87;5.23;;;22.00;99.90;;;;;;5118319;28;20180;-81
2023/05/21 09:10:50;;;;;;;5.73;5.00;;;22.10;99.90;;;;;;5117489;28;20232;-82
2023/05/21 09:13:17;;;;;;;9.87;6.27;;;22.30;99.90;;;;;;5117691;28;20660;-81
2023/05/21 09:15:46;;;;;;;4.73;4.30;;;22.50;99.90;;;;;;5117360;28;20582;-81
2023/05/21 09:18:13;;;;;;;5.27;4.70;;;22.90;99.90;;;;;;5118513;28;20183;-79
2023/05/21 09:20:40;;;;;;;4.43;4.03;;;23.30;99.90;;;;;;5118125;28;20585;-82
2023/05/21 09:23:11;;;;;;;4.67;3.90;;;23.50;99.90;;;;;;5117234;28;20243;-79
2023/05/21 09:25:37;;;;;;;7.77;3.67;;;23.70;99.90;;;;;;5117749;28;20206;-77
2023/05/21 09:28:09;;;;;;;6.73;3.70;;;24.00;99.90;;;;;;5117229;28;20164;-79
2023/05/21 09:30:35;;;;;;;4.73;3.53;;;24.10;98.80;;;;;;5119561;28;20189;-78
2023/05/21 09:33:02;;;;;;;6.30;4.73;;;23.90;98.30;;;;;;5117974;28;20632;-77
2023/05/21 09:35:28;;;;;;;5.67;4.40;;;24.10;99.90;;;;;;5116327;28;20176;-77
2023/05/21 09:37:56;;;;;;;8.07;5.17;;;24.00;99.90;;;;;;5117460;28;20183;-79
2023/05/21 09:40:22;;;;;;;5.10;4.40;;;24.10;99.90;;;;;;5117471;28;20188;-78
2023/05/21 09:42:50;;;;;;;6.17;4.77;;;23.90;99.90;;;;;;5118681;27;20173;-78
2023/05/21 09:45:20;;;;;;;4.50;4.10;;;23.90;99.90;;;;;;5117116;28;20214;-78
2023/05/21 09:47:47;;;;;;;4.90;4.40;;;24.10;99.90;;;;;;5119090;28;20176;-78
2023/05/21 09:50:20;;;;;;;5.20;4.60;;;24.30;99.90;;;;;;5118182;28;20205;-78
2023/05/21 09:52:47;;;;;;;5.47;4.47;;;24.60;99.90;;;;;;5116981;28;20162;-77
2023/05/21 09:55:13;;;;;;;4.90;4.40;;;24.90;99.90;;;;;;5117645;28;20181;-77
2023/05/21 09:57:43;;;;;;;7.23;4.83;;;25.20;99.90;;;;;;5117198;28;20644;-78
2023/05/21 10:00:23;;;;;;;7.47;4.70;;;25.40;99.90;;;;;;5118934;28;20239;-77
2023/05/21 10:02:53;;;;;;;5.80;4.30;;;25.70;99.90;;;;;;5116456;28;20199;-78
2023/05/21 10:05:20;;;;;;;5.70;4.63;;;25.90;98.90;;;;;;5118082;28;20199;-78
2023/05/21 10:07:50;;;;;;;5.90;4.60;;;25.90;98.50;;;;;;5116826;28;20170;-79
2023/05/21 10:10:20;;;;;;;8.27;5.13;;;25.90;99.90;;;;;;5116974;28;20188;-79
2023/05/21 10:12:50;;;;;;;4.97;4.47;;;25.80;98.00;;;;;;5115735;28;20168;-77
2023/05/21 10:15:22;;;;;;;5.63;4.27;;;25.90;98.40;;;;;;5114984;28;20160;-82
2023/05/21 10:17:49;;;;;;;6.83;3.87;;;25.80;98.60;;;;;;5115563;28;20175;-78
2023/05/21 10:20:16;;;;;;;5.90;3.70;;;25.80;95.60;;;;;;5113573;28;20183;-77
2023/05/21 10:22:43;;;;;;;8.10;4.00;;;25.70;95.80;;;;;;5114263;28;20199;-78
2023/05/21 10:25:08;;;;;;;5.90;4.00;;;25.20;96.90;;;;;;5114578;28;20281;-77
2023/05/21 10:27:36;;;;;;;6.00;4.60;;;25.00;97.90;;;;;;5118090;28;20591;-78
2023/05/21 10:30:06;;;;;;;6.43;4.70;;;25.10;97.80;;;;;;5118955;28;20508;-78
2023/05/21 10:32:32;;;;;;;5.50;4.63;;;25.10;97.80;;;;;;5116782;28;20168;-78
2023/05/21 10:34:59;;;;;;;6.73;4.23;;;25.10;97.20;;;;;;5118966;28;20633;-79
2023/05/21 10:37:26;;;;;;;4.57;4.17;;;25.20;96.70;;;;;;5120182;28;20172;-79
2023/05/21 10:39:55;;;;;;;6.33;4.23;;;25.30;97.80;;;;;;5117463;28;20179;-79
2023/05/21 10:42:31;;;;;;;5.87;4.47;;;25.30;97.00;;;;;;5116752;28;20175;-80
2023/05/21 10:45:07;;;;;;;7.57;4.80;;;25.50;97.20;;;;;;5115070;28;20210;-79
2023/05/21 10:48:10;;;;;;;4.93;4.33;;;25.60;95.90;;;;;;5116694;28;20164;-81
2023/05/21 10:50:54;;;;;;;5.33;4.40;;;26.00;94.50;;;;;;5115970;28;20211;-81
2023/05/21 10:53:25;;;;;;;5.87;4.73;;;26.30;96.80;;;;;;5115527;28;20171;-80
2023/05/21 10:56:16;;;;;;;5.37;4.77;;;26.80;95.90;;;;;;5116089;28;20207;-80
2023/05/21 10:58:57;;;;;;;7.10;4.70;;;27.10;95.40;;;;;;5116447;28;20182;-80
2023/05/21 11:01:27;;;;;;;8.40;4.93;;;27.50;96.70;;;;;;5116648;28;20196;-79
2023/05/21 11:03:54;;;;;;;5.07;4.50;;;27.50;92.90;;;;;;5117768;28;20173;-81
2023/05/21 11:06:25;;;;;;;5.20;4.70;;;27.10;91.40;;;;;;5119370;28;20694;-79
2023/05/21 11:08:54;;;;;;;7.73;4.97;;;26.90;93.10;;;;;;5119703;28;20170;-80
2023/05/21 11:11:48;;;;;;;7.17;4.97;;;26.50;92.10;;;;;;5118906;28;20214;-81
2023/05/21 11:14:36;;;;;;;5.97;4.20;;;26.40;92.90;;;;;;5118659;28;20177;-81
2023/05/21 11:17:03;;;;;;;6.90;4.80;;;26.90;94.20;;;;;;5119055;28;20202;-81
2023/05/21 11:19:35;;;;;;;9.37;4.73;;;27.60;92.60;;;;;;5115843;28;20173;-79
2023/05/21 11:22:07;;;;;;;7.57;4.70;;;28.10;93.40;;;;;;5116309;28;20213;-80
2023/05/21 11:24:36;;;;;;;5.10;3.97;;;28.40;89.90;;;;;;5117983;28;20233;-80
2023/05/21 11:27:03;;;;;;;5.87;4.37;;;28.70;85.80;;;;;;5115797;28;20206;-80
2023/05/21 11:29:40;;;;;;;5.53;4.10;;;28.80;87.90;;;;;;5115792;28;20209;-80
2023/05/21 11:32:08;;;;;;;5.50;4.57;;;28.80;91.10;;;;;;5115971;28;20236;-80
2023/05/21 11:34:47;;;;;;;7.40;4.20;;;28.60;85.30;;;;;;5124336;28;20165;-81
2023/05/21 11:37:16;;;;;;;4.73;4.33;;;28.50;78.20;;;;;;5119048;28;20220;-80
2023/05/21 11:39:43;;;;;;;4.37;3.70;;;28.40;81.40;;;;;;5119048;28;20172;-79
2023/05/21 11:42:11;;;;;;;6.13;4.13;;;28.60;84.70;;;;;;5119551;28;20217;-77
2023/05/21 11:44:42;;;;;;;5.73;4.13;;;28.70;75.60;;;;;;5119207;28;20176;-81
2023/05/21 11:47:16;;;;;;;6.77;4.47;;;28.70;80.40;;;;;;5128862;28;20264;-80
2023/05/21 11:49:42;;;;;;;5.00;4.60;;;29.10;79.70;;;;;;5127105;28;20203;-81
2023/05/21 11:52:10;;;;;;;5.13;4.20;;;29.00;74.30;;;;;;5130079;28;20246;-80
2023/05/21 11:54:45;;;;;;;5.30;4.40;;;29.20;73.60;;;;;;5126554;28;20567;-81
2023/05/21 11:57:13;;;;;;;5.77;3.90;;;29.40;71.30;;;;;;5121454;28;20216;-82
2023/05/21 11:59:40;;;;;;;4.47;3.40;;;29.40;68.30;;;;;;5120387;28;20208;-79
2023/05/21 12:02:06;;;;;;;6.57;3.67;;;28.80;63.70;;;;;;5120227;28;20590;-79
2023/05/21 12:04:36;;;;;;;3.53;3.23;;;28.40;64.70;;;;;;5117789;28;20652;-78
2023/05/21 12:07:08;;;;;;;5.93;3.13;;;28.20;65.50;;;;;;5119062;27;20176;-79
2023/05/21 12:09:44;;;;;;;3.67;3.30;;;28.30;64.50;;;;;;5119040;28;20554;-79
2023/05/21 12:12:12;;;;;;;5.17;3.57;;;28.20;65.40;;;;;;5119453;28;20653;-81
2023/05/21 12:14:38;;;;;;;6.93;3.93;;;28.40;65.60;;;;;;5119731;28;20198;-78
2023/05/21 12:17:09;;;;;;;3.50;3.17;;;28.80;58.60;;;;;;5120057;28;20191;-79
2023/05/21 12:19:36;;;;;;;5.30;3.60;;;29.00;57.80;;;;;;5119358;28;20164;-79
2023/05/21 12:22:03;;;;;;;5.83;3.90;;;29.10;60.30;;;;;;5118834;28;20202;-78
2023/05/21 12:24:29;;;;;;;6.13;3.77;;;29.40;56.60;;;;;;5119217;28;20258;-80
2023/05/21 12:26:58;;;;;;;5.10;3.53;;;29.70;59.30;;;;;;5118081;28;20570;-77
2023/05/21 12:29:25;;;;;;;3.80;3.50;;;30.00;64.10;;;;;;5117775;28;20200;-78
2023/05/21 12:31:51;;;;;;;5.07;3.90;;;30.20;56.80;;;;;;5119293;28;20193;-79
2023/05/21 12:34:37;;;;;;;4.13;3.70;;;30.10;56.70;;;;;;5119439;28;20251;-79
2023/05/21 12:37:05;;;;;;;6.17;3.70;;;30.10;56.50;;;;;;5119390;28;20517;-78
2023/05/21 12:39:32;;;;;;;3.80;3.50;;;29.70;58.70;;;;;;5118509;28;20200;-79
2023/05/21 12:41:58;;;;;;;5.53;3.87;;;29.40;55.90;;;;;;5118436;28;20206;-78
2023/05/21 12:44:29;;;;;;;4.10;3.70;;;28.60;58.60;;;;;;5119381;28;20172;-79
2023/05/21 12:46:56;;;;;;;4.10;3.80;;;27.90;59.20;;;;;;5119866;28;20202;-78
2023/05/21 12:49:41;;;;;;;5.90;3.70;;;27.60;64.60;;;;;;5118454;28;20175;-79
2023/05/21 12:52:08;;;;;;;6.00;4.07;;;27.30;61.50;;;;;;5115315;28;20191;-77
2023/05/21 12:54:37;;;;;;;4.60;4.20;;;26.70;60.70;;;;;;5117386;28;20186;-79
2023/05/21 12:57:07;;;;;;;5.87;3.87;;;26.40;61.30;;;;;;5117488;28;20210;-77
2023/05/21 12:59:49;;;;;;;4.63;3.90;;;26.10;64.70;;;;;;5116819;28;20171;-78
2023/05/21 13:02:44;;;;;;;4.60;3.70;;;26.20;63.60;;;;;;5118161;28;20660;-76
2023/05/21 13:05:18;;;;;;;5.43;4.30;;;26.10;65.10;;;;;;5109276;28;20550;-79
2023/05/21 13:07:49;;;;;;;6.43;4.03;;;26.00;67.50;;;;;;5120771;28;20180;-78
2023/05/21 13:10:15;;;;;;;4.63;4.13;;;25.40;64.30;;;;;;5118559;28;20161;-77
2023/05/21 13:12:41;;;;;;;5.13;4.40;;;25.30;65.20;;;;;;5117180;28;20499;-77
2023/05/21 13:15:07;;;;;;;4.97;4.23;;;24.90;67.60;;;;;;5119387;28;20172;-77
2023/05/21 13:17:32;;;;;;;4.23;3.83;;;24.50;66.90;;;;;;5119550;27;20226;-79
2023/05/21 13:20:06;;;;;;;5.57;4.10;;;24.40;67.00;;;;;;5117418;27;20246;-76
2023/05/21 13:22:32;;;;;;;4.87;3.83;;;24.20;67.10;;;;;;5116523;28;20200;-76
2023/05/21 13:24:58;;;;;;;4.73;4.20;;;24.10;68.90;;;;;;5121137;28;20195;-79
2023/05/21 13:27:24;;;;;;;5.07;4.50;;;24.20;68.30;;;;;;5119071;28;20172;-79
2023/05/21 13:29:49;;;;;;;5.60;4.53;;;24.20;70.00;;;;;;5117617;28;20724;-80
2023/05/21 13:32:15;;;;;;;4.70;4.20;;;24.20;68.80;;;;;;5116969;28;20552;-79
2023/05/21 13:34:41;;;;;;;6.00;4.50;;;24.20;70.90;;;;;;5117101;28;20539;-78
2023/05/21 13:37:06;;;;;;;5.10;4.60;;;24.20;69.20;;;;;;5118088;28;20537;-79
2023/05/21 13:39:32;;;;;;;6.93;5.47;;;24.20;72.20;;;;;;5119149;28;20179;-81
2023/05/21 13:41:58;;;;;;;5.17;4.67;;;24.20;69.70;;;;;;5115862;28;20192;-80
2023/05/21 13:44:23;;;;;;;5.60;5.00;;;24.10;72.90;;;;;;5114718;28;20176;-77
2023/05/21 13:46:49;;;;;;;9.07;5.10;;;24.20;76.10;;;;;;5114701;28;20227;-78
2023/05/21 13:49:15;;;;;;;5.63;4.93;;;24.40;71.80;;;;;;5115332;28;20198;-78
2023/05/21 13:51:41;;;;;;;7.80;5.10;;;24.50;73.40;;;;;;5115586;28;20198;-79
2023/05/21 13:54:07;;;;;;;6.60;5.13;;;24.60;74.70;;;;;;5116165;28;20170;-78
2023/05/21 13:56:32;;;;;;;5.77;5.13;;;24.90;73.00;;;;;;5116705;28;20555;-79
2023/05/21 13:58:58;;;;;;;7.83;4.80;;;25.10;76.00;;;;;;5116015;28;20219;-77
2023/05/21 14:01:24;;;;;;;8.27;4.83;;;25.10;73.20;;;;;;5116530;28;20193;-78
2023/05/21 14:03:50;;;;;;;7.93;5.57;;;24.90;72.70;;;;;;5115518;28;20174;-79
2023/05/21 14:06:16;;;;;;;7.47;5.37;;;24.90;76.40;;;;;;5118710;28;20524;-78
2023/05/21 14:08:41;;;;;;;6.10;5.30;;;25.10;74.10;;;;;;5114648;28;20184;-78
2023/05/21 14:11:07;;;;;;;5.70;5.10;;;25.00;74.50;;;;;;5115247;28;20191;-76
2023/05/21 14:13:33;;;;;;;5.57;5.07;;;25.00;73.10;;;;;;5116427;28;20653;-77
2023/05/21 14:15:58;;;;;;;8.63;4.90;;;25.20;74.50;;;;;;5116583;28;20228;-77
2023/05/21 14:18:24;;;;;;;7.77;5.10;;;25.40;71.80;;;;;;5120737;28;20251;-79
2023/05/21 14:20:50;;;;;;;5.53;4.93;;;25.50;73.10;;;;;;5117142;28;20202;-76
2023/05/21 14:23:16;;;;;;;6.87;4.80;;;25.50;71.50;;;;;;5117594;28;20574;-78
2023/05/21 14:25:41;;;;;;;5.83;5.33;;;25.50;74.10;;;;;;5117995;28;20198;-77
2023/05/21 14:28:07;;;;;;;5.63;4.73;;;25.60;69.40;;;;;;5116646;28;20181;-78
2023/05/21 14:30:33;;;;;;;4.93;4.50;;;25.60;69.70;;;;;;5116522;28;20270;-78
2023/05/21 14:32:58;;;;;;;5.00;4.53;;;25.40;72.30;;;;;;5117017;28;20227;-77
2023/05/21 14:35:24;;;;;;;8.37;4.77;;;25.10;70.40;;;;;;5116281;28;20245;-78
2023/05/21 14:37:50;;;;;;;5.77;5.17;;;24.90;69.60;;;;;;5116837;28;20226;-78
2023/05/21 14:40:15;;;;;;;6.13;5.27;;;24.90;74.00;;;;;;5116961;28;20691;-78
2023/05/21 14:42:41;;;;;;;8.93;4.97;;;25.20;76.00;;;;;;5119256;28;20210;-77
2023/05/21 14:45:07;;;;;;;5.53;5.03;;;25.60;80.40;;;;;;5117865;28;20744;-77
2023/05/21 14:47:33;;;;;;;7.27;5.07;;;26.40;72.60;;;;;;5117793;28;20163;-77
2023/05/21 14:49:58;;;;;;;6.03;4.70;;;27.10;73.80;;;;;;5118594;28;20225;-77
2023/05/21 14:52:24;;;;;;;6.10;5.50;;;27.80;68.40;;;;;;5119440;28;20175;-78
2023/05/21 14:54:50;;;;;;;5.43;4.90;;;27.90;66.40;;;;;;5120274;28;20341;-78
2023/05/21 14:57:15;;;;;;;5.93;5.30;;;27.70;67.60;;;;;;5121029;28;20247;-79
2023/05/21 14:59:41;;;;;;;6.07;5.30;;;27.70;67.00;;;;;;5124151;28;20175;-77
2023/05/21 15:02:07;;;;;;;6.80;4.77;;;27.60;63.40;;;;;;5121440;28;20189;-78
2023/05/21 15:04:33;;;;;;;5.47;4.47;;;27.30;65.80;;;;;;5120566;28;20248;-78
2023/05/21 15:06:58;;;;;;;8.53;5.10;;;26.80;65.70;;;;;;5121445;28;20203;-80
2023/05/21 15:09:24;;;;;;;5.60;4.97;;;26.80;66.30;;;;;;5124417;28;20176;-81
2023/05/21 15:11:52;;;;;;;6.57;4.90;;;26.80;71.40;;;;;;5123629;28;20245;-80
2023/05/21 15:14:18;;;;;;;5.70;5.10;;;26.70;69.10;;;;;;5124069;28;20172;-80
2023/05/21 15:16:44;;;;;;;6.43;5.30;;;26.70;69.50;;;;;;5124252;28;20187;-80
2023/05/21 15:19:10;;;;;;;7.90;5.80;;;26.60;69.90;;;;;;5126292;28;20179;-81
2023/05/21 15:21:37;;;;;;;6.50;4.93;;;26.50;72.30;;;;;;5125817;28;20274;-83
2023/05/21 15:24:03;;;;;;;7.77;4.90;;;26.50;76.40;;;;;;5126324;28;20252;-84
2023/05/21 15:26:28;;;;;;;9.70;4.70;;;26.60;75.50;;;;;;5121299;28;20274;-78
2023/05/21 15:28:54;;;;;;;8.23;4.87;;;26.80;74.80;;;;;;5123664;28;20271;-79
2023/05/21 15:31:20;;;;;;;5.27;4.50;;;26.80;75.20;;;;;;5119331;28;20592;-79
2023/05/21 15:33:46;;;;;;;5.47;4.77;;;27.00;72.20;;;;;;5120069;28;20282;-80
2023/05/21 15:36:11;;;;;;;7.63;5.17;;;27.00;71.90;;;;;;5119237;28;20207;-79
2023/05/21 15:38:37;;;;;;;6.27;4.60;;;27.20;75.00;;;;;;5120872;28;20670;-79
2023/05/21 15:41:04;;;;;;;5.63;4.70;;;27.20;71.30;;;;;;5120432;28;20572;-82
2023/05/21 15:43:29;;;;;;;6.97;5.13;;;27.30;71.70;;;;;;5119175;28;20199;-81
2023/05/21 15:45:55;;;;;;;7.93;6.13;;;27.30;68.60;;;;;;5117752;28;20210;-81
2023/05/21 15:48:21;;;;;;;10.60;7.20;;;27.60;71.50;;;;;;5119359;28;20473;-79
2023/05/21 15:50:50;;;;;;;23.80;12.47;;;27.50;79.90;;;;;;5118444;28;20188;-80
2023/05/21 15:53:15;;;;;;;19.33;9.73;;;27.40;69.90;;;;;;5117940;28;20176;-82
2023/05/21 15:55:41;;;;;;;6.63;5.70;;;27.10;71.70;;;;;;5118367;28;20636;-81
2023/05/21 15:58:07;;;;;;;6.97;5.30;;;26.70;72.50;;;;;;5118544;28;20182;-80
2023/05/21 16:00:33;;;;;;;6.00;4.80;;;26.20;78.00;;;;;;5119820;28;20312;-80
2023/05/21 16:02:58;;;;;;;6.70;4.90;;;25.80;75.50;;;;;;5120333;28;20167;-79
2023/05/21 16:05:25;;;;;;;8.37;5.07;;;25.50;75.30;;;;;;5117359;28;20286;-78
2023/05/21 16:07:51;;;;;;;8.63;5.17;;;25.20;77.80;;;;;;5117877;28;20247;-77
2023/05/21 16:10:16;;;;;;;6.03;4.80;;;24.90;80.10;;;;;;5118685;28;20563;-77
2023/05/21 16:12:42;;;;;;;6.73;5.33;;;24.70;82.10;;;;;;5118811;28;20637;-77
2023/05/21 16:15:09;;;;;;;5.87;4.90;;;24.60;86.30;;;;;;5118944;28;20174;-77
2023/05/21 16:17:35;;;;;;;6.33;5.00;;;24.50;78.80;;;;;;5117360;28;20194;-79
2023/05/21 16:20:01;;;;;;;7.73;5.87;;;24.20;78.30;;;;;;5119335;28;20182;-83
2023/05/21 16:22:27;;;;;;;9.13;5.83;;;24.20;78.70;;;;;;5118613;28;20637;-85
2023/05/21 16:24:53;;;;;;;7.37;5.47;;;23.80;78.20;;;;;;5117305;28;20183;-83
2023/05/21 16:27:22;;;;;;;9.70;5.57;;;23.70;80.80;;;;;;5118230;28;20198;-82
2023/05/21 16:29:49;;;;;;;7.37;5.10;;;23.50;82.40;;;;;;5116952;28;20250;-82
2023/05/21 16:32:15;;;;;;;6.20;5.60;;;23.40;81.60;;;;;;5117638;28;20198;-83
2023/05/21 16:34:41;;;;;;;7.07;5.20;;;23.20;82.30;;;;;;5118697;28;20182;-82
2023/05/21 16:37:09;;;;;;;7.40;5.80;;;23.10;80.80;;;;;;5118771;28;20247;-81
2023/05/21 16:39:36;;;;;;;5.37;4.87;;;22.90;80.90;;;;;;5122562;28;20170;-81
2023/05/21 16:42:01;;;;;;;7.60;5.33;;;22.80;82.10;;;;;;5120562;27;20195;-82
2023/05/21 16:44:27;;;;;;;8.03;5.60;;;22.70;82.90;;;;;;5116964;28;20177;-81
2023/05/21 16:46:53;;;;;;;8.23;5.77;;;22.60;83.00;;;;;;5118078;28;20256;-81
2023/05/21 16:49:18;;;;;;;5.93;5.30;;;22.50;84.70;;;;;;5117253;28;20277;-82
2023/05/21 16:51:44;;;;;;;6.87;5.50;;;22.50;85.00;;;;;;5116957;28;20218;-81
2023/05/21 16:54:11;;;;;;;6.33;5.10;;;22.50;83.60;;;;;;5117291;28;20236;-82
2023/05/21 16:56:36;;;;;;;6.97;5.40;;;22.30;84.10;;;;;;5117498;28;20509;-81
2023/05/21 16:59:04;;;;;;;5.90;5.37;;;22.30;85.60;;;;;;5118048;28;20206;-78
2023/05/21 17:01:29;;;;;;;8.83;6.40;;;22.30;86.80;;;;;;5118134;28;20199;-80
2023/05/21 17:03:55;;;;;;;8.00;5.43;;;22.20;85.80;;;;;;5118453;28;20180;-78
2023/05/21 17:06:22;;;;;;;10.63;5.83;;;22.10;87.60;;;;;;5120754;28;20199;-79
2023/05/21 17:08:48;;;;;;;6.30;5.70;;;22.10;88.00;;;;;;5117926;28;20172;-80
2023/05/21 17:11:13;;;;;;;7.43;5.23;;;22.00;89.10;;;;;;5118926;28;20475;-81
2023/05/21 17:13:39;;;;;;;8.93;4.97;;;22.00;87.00;;;;;;5117770;28;20171;-81
2023/05/21 17:16:05;;;;;;;7.90;5.30;;;21.90;86.40;;;;;;5128395;27;20674;-80
2023/05/21 17:18:30;;;;;;;9.00;5.77;;;21.90;87.80;;;;;;5139514;27;20640;-80
2023/05/21 17:20:57;;;;;;;5.90;5.30;;;21.90;89.10;;;;;;5139670;27;20559;-86
2023/05/21 17:23:23;;;;;;;8.13;5.17;;;21.90;89.50;;;;;;5140008;27;20228;-84
2023/05/21 17:25:49;;;;;;;6.20;5.00;;;21.80;88.30;;;;;;5137901;27;20682;-82
2023/05/21 17:28:14;;;;;;;5.80;5.20;;;21.80;88.30;;;;;;5136906;27;20175;-82
2023/05/21 17:30:40;;;;;;;6.13;4.87;;;21.80;87.00;;;;;;5135449;27;20200;-82
2023/05/21 17:33:06;;;;;;;5.80;5.13;;;21.70;88.20;;;;;;5136610;27;20181;-81
2023/05/21 17:35:32;;;;;;;7.43;5.50;;;21.70;88.20;;;;;;5138125;27;20199;-82
2023/05/21 17:37:58;;;;;;;5.90;5.20;;;21.60;88.10;;;;;;5136793;27;20257;-83
2023/05/21 17:40:24;;;;;;;9.37;5.87;;;21.50;90.40;;;;;;5137570;27;20229;-82
2023/05/21 17:42:50;;;;;;;8.57;4.63;;;21.40;91.20;;;;;;5136487;27;20175;-82
2023/05/21 17:45:16;;;;;;;12.93;5.53;;;21.40;90.70;;;;;;5135923;27;20210;-82
2023/05/21 17:47:42;;;;;;;11.50;5.60;;;21.30;91.00;;;;;;5136927;27;20175;-81
2023/05/21 17:50:08;;;;;;;7.83;6.20;;;21.20;91.90;;;;;;5138150;27;20609;-83
2023/05/21 17:52:33;;;;;;;6.23;4.63;;;21.10;91.10;;;;;;5136727;27;20639;-83
2023/05/21 17:55:00;;;;;;;5.83;5.30;;;21.00;91.70;;;;;;5138906;27;20189;-82
2023/05/21 17:57:26;;;;;;;7.90;5.37;;;20.90;91.60;;;;;;5138664;27;20227;-83
